Time;durP1;ratioP1;P1;durP2;ratioP2;P2;SDS_P1;SDS_P2;PMS_P1;PMS_P2;Temp;Humidity;BMP_temperature;BMP_pressure;BME280_temperature;BME280_humidity;BME280_pressure;Samples;Min_cycle;Max_cycle;Signal;HPM_P1;HPM_P2
2022/08/09 00:02:19;;;;;;;4.90;3.25;;;;;;;23.88;88.76;100671.06;4982201;28;20043;-90
2022/08/09 00:04:45;;;;;;;7.70;3.40;;;;;;;23.89;88.48;100675.44;4981035;28;20034;-91
2022/08/09 00:07:10;;;;;;;9.02;3.95;;;;;;;23.91;88.89;100684.13;4961564;28;20027;-90
2022/08/09 00:09:36;;;;;;;4.65;3.15;;;;;;;23.84;89.58;100680.75;4982402;28;20034;-91
2022/08/09 00:12:01;;;;;;;5.13;3.38;;;;;;;23.73;90.46;100681.63;4986069;28;20035;-89
2022/08/09 00:14:28;;;;;;;6.97;3.55;;;;;;;23.64;91.77;100677.69;4967140;28;20102;-92
2022/08/09 00:16:56;;;;;;;5.35;3.70;;;;;;;23.67;91.49;100688.03;4987400;28;20042;-88
2022/08/09 00:19:22;;;;;;;6.88;4.07;;;;;;;23.54;92.42;100689.16;4974095;28;20043;-89
2022/08/09 00:21:48;;;;;;;5.35;3.58;;;;;;;23.44;94.71;100690.84;4972002;28;20117;-84
2022/08/09 00:24:15;;;;;;;5.57;3.70;;;;;;;23.41;94.56;100685.91;4985952;28;20070;-88
2022/08/09 00:26:41;;;;;;;5.95;3.33;;;;;;;23.37;94.85;100687.44;4983310;28;20058;-89
2022/08/09 00:29:07;;;;;;;8.45;3.90;;;;;;;23.25;95.95;100683.97;4983823;28;20480;-92
2022/08/09 00:31:33;;;;;;;6.28;3.97;;;;;;;23.21;96.58;100682.78;4985713;28;20058;-86
2022/08/09 00:33:59;;;;;;;5.72;3.80;;;;;;;23.11;98.22;100686.13;4980284;28;20472;-87
2022/08/09 00:36:25;;;;;;;7.10;3.90;;;;;;;23.15;97.93;100682.72;4962455;28;20503;-86
2022/08/09 00:38:51;;;;;;;4.68;3.97;;;;;;;23.25;98.25;100683.97;4978212;28;20053;-84
2022/08/09 00:41:19;;;;;;;9.13;3.80;;;;;;;23.09;100.00;100686.38;4977946;28;20027;-88
2022/08/09 00:43:45;;;;;;;11.20;4.60;;;;;;;22.99;100.00;100686.19;4977070;28;20472;-88
2022/08/09 00:46:11;;;;;;;9.90;4.18;;;;;;;22.73;100.00;100680.47;4959742;28;20089;-87
2022/08/09 00:48:37;;;;;;;10.25;4.63;;;;;;;22.70;100.00;100687.19;4977654;28;20035;-88
2022/08/09 00:51:05;;;;;;;6.93;4.63;;;;;;;22.58;100.00;100678.22;4960070;28;20089;-86
2022/08/09 00:53:31;;;;;;;10.48;5.93;;;;;;;22.64;100.00;100682.66;4976700;28;20079;-87
2022/08/09 00:55:57;;;;;;;6.93;4.15;;;;;;;22.77;100.00;100687.06;4976666;28;20031;-87
2022/08/09 00:58:23;;;;;;;9.23;5.15;;;;;;;22.95;100.00;100686.88;4975498;28;20407;-88
2022/08/09 01:00:52;;;;;;;13.65;5.22;;;;;;;22.76;100.00;100688.94;4976740;28;20034;-89
2022/08/09 01:03:32;;;;;;;12.98;6.82;;;;;;;22.73;100.00;100697.50;4976684;28;20113;-86
2022/08/09 01:06:19;;;;;;;10.00;6.63;;;;;;;22.69;100.00;100685.53;4976524;28;20039;-86
2022/08/09 01:09:15;;;;;;;13.77;7.50;;;;;;;22.74;100.00;100691.03;4959217;28;20093;-87
2022/08/09 01:11:56;;;;;;;10.75;6.70;;;;;;;22.77;100.00;100700.56;4975221;28;20039;-88
2022/08/09 01:14:33;;;;;;;9.07;7.32;;;;;;;22.88;100.00;100705.94;4976022;28;20125;-86
2022/08/09 01:17:26;;;;;;;18.10;8.02;;;;;;;22.71;100.00;100698.78;4976502;28;20095;-90
2022/08/09 01:20:12;;;;;;;9.68;7.40;;;;;;;22.54;100.00;100699.47;4954513;28;20043;-88
2022/08/09 01:22:49;;;;;;;8.98;7.05;;;;;;;22.46;100.00;100707.97;4948441;28;20115;-88
2022/08/09 01:25:38;;;;;;;10.27;7.68;;;;;;;22.45;100.00;100700.06;4964035;28;20106;-87
2022/08/09 01:28:06;;;;;;;9.93;6.68;;;;;;;22.63;100.00;100697.25;4976026;28;20066;-87
2022/08/09 01:30:35;;;;;;;13.60;7.43;;;;;;;22.59;100.00;100691.50;4976252;28;20081;-88
2022/08/09 01:33:04;;;;;;;12.82;6.57;;;;;;;22.59;100.00;100690.69;4976490;28;20126;-89
2022/08/09 01:35:44;;;;;;;10.93;6.45;;;;;;;22.55;100.00;100684.09;4976727;28;20461;-85
2022/08/09 01:38:14;;;;;;;8.93;6.28;;;;;;;22.52;100.00;100685.41;4976298;28;20476;-89
2022/08/09 01:41:08;;;;;;;9.13;5.90;;;;;;;22.52;100.00;100689.97;4976556;28;20035;-87
2022/08/09 01:43:38;;;;;;;8.23;5.82;;;;;;;22.46;100.00;100680.13;4976095;28;20043;-90
2022/08/09 01:46:05;;;;;;;12.45;6.40;;;;;;;22.33;100.00;100680.34;4976979;28;20038;-91
2022/08/09 01:48:32;;;;;;;11.63;5.47;;;;;;;22.30;100.00;100686.22;4975798;28;20050;-87
2022/08/09 01:51:01;;;;;;;14.93;6.03;;;;;;;22.30;100.00;100699.72;4958494;28;20046;-88
2022/08/09 01:53:29;;;;;;;8.27;5.50;;;;;;;22.35;100.00;100699.84;4976063;28;20088;-86
2022/08/09 01:55:55;;;;;;;12.25;5.70;;;;;;;22.33;100.00;100704.66;4975524;28;20186;-87
2022/08/09 01:58:22;;;;;;;7.05;5.65;;;;;;;22.40;100.00;100705.38;4975173;28;20062;-88
2022/08/09 02:00:53;;;;;;;9.73;5.18;;;;;;;22.50;100.00;100713.72;4959774;28;20159;-88
2022/08/09 02:03:20;;;;;;;8.48;5.35;;;;;;;22.54;100.00;100712.16;4975687;28;20037;-90
2022/08/09 02:05:50;;;;;;;7.70;5.15;;;;;;;22.57;100.00;100717.13;4976001;28;20051;-88
2022/08/09 02:08:18;;;;;;;8.35;5.45;;;;;;;22.65;100.00;100716.75;4959092;28;20113;-90
2022/08/09 02:10:47;;;;;;;14.23;5.47;;;;;;;22.71;100.00;100726.63;4973664;28;20405;-88
2022/08/09 02:13:17;;;;;;;10.40;5.53;;;;;;;22.71;100.00;100726.63;4975582;28;20090;-89
2022/08/09 02:15:48;;;;;;;7.35;4.95;;;;;;;22.70;100.00;100724.19;4958671;28;20489;-87
2022/08/09 02:18:18;;;;;;;7.35;4.93;;;;;;;22.62;100.00;100723.44;4974991;28;20408;-86
2022/08/09 02:20:48;;;;;;;7.40;5.32;;;;;;;22.56;100.00;100727.09;4975998;28;20042;-86
2022/08/09 02:23:24;;;;;;;8.98;5.63;;;;;;;22.49;100.00;100728.25;4974619;28;20404;-90
2022/08/09 02:25:54;;;;;;;6.40;4.93;;;;;;;22.47;100.00;100731.19;4975523;28;20157;-89
2022/08/09 02:28:28;;;;;;;11.25;4.85;;;;;;;22.58;100.00;100734.94;4977697;28;20062;-85
2022/08/09 02:31:00;;;;;;;8.55;4.55;;;;;;;22.53;100.00;100735.69;4976414;28;20089;-88
2022/08/09 02:33:29;;;;;;;10.38;4.93;;;;;;;22.50;100.00;100730.75;4975534;28;20031;-85
2022/08/09 02:35:58;;;;;;;7.45;4.78;;;;;;;22.49;100.00;100739.06;4975865;28;20039;-90
2022/08/09 02:38:27;;;;;;;10.80;4.18;;;;;;;22.52;100.00;100733.19;4976604;28;20491;-86
2022/08/09 02:41:03;;;;;;;5.75;4.55;;;;;;;22.62;100.00;100726.16;4977827;28;20480;-89
2022/08/09 02:43:32;;;;;;;8.20;4.40;;;;;;;22.60;100.00;100727.44;4979406;28;20034;-89
2022/08/09 02:46:00;;;;;;;9.27;4.30;;;;;;;22.55;100.00;100727.31;4979860;28;20035;-89
2022/08/09 02:48:28;;;;;;;6.50;5.10;;;;;;;22.48;100.00;100726.63;4979342;28;20168;-86
2022/08/09 02:50:55;;;;;;;7.32;4.57;;;;;;;22.43;100.00;100719.22;4993934;28;20035;-86
2022/08/09 02:53:26;;;;;;;7.00;4.53;;;;;;;22.50;100.00;100719.13;4999228;28;20039;-87
2022/08/09 02:55:55;;;;;;;8.13;4.75;;;;;;;22.42;100.00;100722.97;4996873;28;20039;-87
2022/08/09 02:58:24;;;;;;;8.15;5.50;;;;;;;22.38;100.00;100719.09;4994521;28;20118;-87
2022/08/09 03:00:52;;;;;;;7.85;5.22;;;;;;;22.39;100.00;100718.06;4985087;28;20424;-90
2022/08/09 03:03:18;;;;;;;7.85;5.47;;;;;;;22.40;100.00;100717.00;4962842;28;20468;-90
2022/08/09 03:05:48;;;;;;;10.65;5.50;;;;;;;22.37;100.00;100708.53;4979443;28;20035;-88
2022/08/09 03:08:16;;;;;;;11.80;5.03;;;;;;;22.26;100.00;100702.09;4979145;28;20047;-90
2022/08/09 03:10:47;;;;;;;8.77;5.13;;;;;;;22.24;100.00;100697.97;4979296;28;20038;-89
2022/08/09 03:13:14;;;;;;;12.75;5.10;;;;;;;22.27;100.00;100692.09;4977476;28;20045;-89
2022/08/09 03:15:41;;;;;;;9.60;4.47;;;;;;;22.33;100.00;100688.47;4981473;28;20062;-90
2022/08/09 03:18:08;;;;;;;12.48;4.90;;;;;;;22.37;100.00;100693.13;4981348;28;20035;-85
2022/08/09 03:20:36;;;;;;;8.65;4.68;;;;;;;22.43;100.00;100694.94;4962897;28;20045;-91
2022/08/09 03:23:06;;;;;;;8.80;4.63;;;;;;;22.54;100.00;100699.47;4981413;28;20038;-90
2022/08/09 03:25:32;;;;;;;7.13;5.25;;;;;;;22.53;100.00;100702.44;4968564;28;20100;-90
2022/08/09 03:28:00;;;;;;;6.28;5.10;;;;;;;22.38;100.00;100700.19;4982214;28;20107;-86
2022/08/09 03:30:30;;;;;;;9.55;5.13;;;;;;;22.28;100.00;100710.75;4984279;28;20039;-90
2022/08/09 03:32:57;;;;;;;7.47;5.28;;;;;;;22.19;100.00;100716.75;4982991;28;20031;-89
2022/08/09 03:35:24;;;;;;;9.82;5.95;;;;;;;22.17;100.00;100713.47;4966380;28;20376;-84
2022/08/09 03:37:50;;;;;;;13.02;6.10;;;;;;;22.33;100.00;100723.56;4976046;28;20035;-88
2022/08/09 03:40:16;;;;;;;12.90;6.22;;;;;;;22.37;100.00;100730.94;4998805;28;20046;-86
2022/08/09 03:42:41;;;;;;;7.43;5.50;;;;;;;22.45;100.00;100724.38;5000449;28;20046;-85
2022/08/09 03:45:07;;;;;;;8.07;5.90;;;;;;;22.49;100.00;100733.66;5000997;28;20086;-87
2022/08/09 03:47:33;;;;;;;11.52;5.68;;;;;;;22.39;100.00;100736.97;4992252;28;20035;-90
2022/08/09 03:50:01;;;;;;;10.77;6.18;;;;;;;22.35;100.00;100737.66;4983297;28;20035;-87
2022/08/09 03:52:29;;;;;;;6.57;5.70;;;;;;;22.31;100.00;100736.47;4978966;28;20058;-91
2022/08/09 03:54:56;;;;;;;11.40;6.00;;;;;;;22.36;100.00;100733.91;4961441;28;20087;-86
2022/08/09 03:57:25;;;;;;;7.70;5.70;;;;;;;22.46;100.00;100728.75;4978929;28;20129;-89
2022/08/09 03:59:52;;;;;;;11.25;5.85;;;;;;;22.34;100.00;100734.13;4979978;28;20034;-90
2022/08/09 04:02:18;;;;;;;12.82;6.18;;;;;;;22.25;100.00;100726.59;4981159;28;20034;-87
2022/08/09 04:04:57;;;;;;;8.00;6.43;;;;;;;22.29;100.00;100733.19;4994066;28;20027;-88
2022/08/09 04:07:28;;;;;;;11.77;6.20;;;;;;;22.22;100.00;100717.09;4985427;28;21176;-88
2022/08/09 04:09:53;;;;;;;9.63;6.78;;;;;;;22.14;100.00;100720.94;4978849;28;20043;-86
2022/08/09 04:12:41;;;;;;;9.02;6.35;;;;;;;22.13;100.00;100713.94;4979275;28;20449;-87
2022/08/09 04:15:07;;;;;;;10.00;6.55;;;;;;;22.03;100.00;100716.38;4977588;28;20049;-87
2022/08/09 04:17:33;;;;;;;13.10;6.03;;;;;;;22.30;100.00;100715.94;4978112;28;20396;-83
2022/08/09 04:19:58;;;;;;;10.85;6.70;;;;;;;22.29;100.00;100714.28;4978553;28;20037;-87
2022/08/09 04:22:24;;;;;;;8.77;6.10;;;;;;;22.28;100.00;100716.16;4978388;28;20041;-88
2022/08/09 04:24:49;;;;;;;9.00;6.32;;;;;;;22.22;100.00;100717.09;4979110;28;20370;-87
2022/08/09 04:27:15;;;;;;;8.20;5.90;;;;;;;22.21;100.00;100725.41;4977746;28;20456;-87
2022/08/09 04:29:40;;;;;;;9.73;5.97;;;;;;;22.17;100.00;100723.19;4980473;28;20122;-86
2022/08/09 04:32:10;;;;;;;10.10;6.03;;;;;;;22.12;100.00;100717.69;4979824;28;20059;-86
2022/08/09 04:34:35;;;;;;;10.35;5.80;;;;;;;22.17;100.00;100733.97;4979260;28;20034;-84
2022/08/09 04:37:01;;;;;;;10.98;5.75;;;;;;;22.24;100.00;100735.78;4977583;28;20065;-86
2022/08/09 04:39:27;;;;;;;12.25;5.95;;;;;;;22.33;100.00;100739.78;4977506;28;20431;-88
2022/08/09 04:41:54;;;;;;;13.70;6.40;;;;;;;22.42;100.00;100749.16;4960248;28;20031;-88
2022/08/09 04:44:20;;;;;;;10.02;6.10;;;;;;;22.29;100.00;100749.38;4960102;28;20464;-88
2022/08/09 04:46:45;;;;;;;12.98;5.82;;;;;;;22.30;100.00;100756.44;4976748;28;20046;-87
2022/08/09 04:49:11;;;;;;;8.38;6.00;;;;;;;22.29;100.00;100754.78;4978012;28;20034;-86
2022/08/09 04:51:36;;;;;;;10.70;6.88;;;;;;;22.28;100.00;100761.22;4982984;28;20045;-87
2022/08/09 04:54:02;;;;;;;9.20;5.50;;;;;;;22.30;100.00;100761.84;4978214;28;20069;-91
2022/08/09 04:56:29;;;;;;;9.48;5.80;;;;;;;22.35;100.00;100770.06;4977903;28;20070;-90
2022/08/09 04:58:55;;;;;;;9.15;6.47;;;;;;;22.44;100.00;100777.56;4979831;28;20054;-86
2022/08/09 05:01:40;;;;;;;13.50;7.13;;;;;;;22.46;100.00;100777.34;4974536;28;20038;-86
2022/08/09 05:04:06;;;;;;;10.63;6.53;;;;;;;22.55;100.00;100782.19;4999010;28;20026;-86
2022/08/09 05:06:31;;;;;;;12.77;6.90;;;;;;;22.55;100.00;100770.53;4980062;28;20058;-85
2022/08/09 05:08:57;;;;;;;14.55;6.30;;;;;;;22.53;100.00;100778.06;4962827;28;20516;-88
2022/08/09 05:11:25;;;;;;;17.38;6.05;;;;;;;22.68;100.00;100786.56;4959102;28;20154;-86
2022/08/09 05:13:50;;;;;;;11.25;6.35;;;;;;;22.51;100.00;100783.69;4979559;28;20039;-89
2022/08/09 05:16:16;;;;;;;10.10;5.88;;;;;;;22.46;100.00;100775.47;4976418;28;20127;-88
2022/08/09 05:18:41;;;;;;;11.52;6.22;;;;;;;22.50;100.00;100778.53;4976406;28;20049;-86
2022/08/09 05:21:07;;;;;;;10.23;6.40;;;;;;;22.64;100.00;100780.75;4976907;28;20436;-87
2022/08/09 05:23:32;;;;;;;8.52;5.95;;;;;;;22.80;100.00;100783.88;4976293;28;20043;-90
2022/08/09 05:25:58;;;;;;;13.73;6.70;;;;;;;22.96;100.00;100789.38;4976224;28;20031;-93
2022/08/09 05:28:23;;;;;;;20.33;6.65;;;;;;;23.22;100.00;100792.63;4976242;28;20448;-90
2022/08/09 05:30:49;;;;;;;11.88;7.47;;;;;;;23.31;100.00;100789.31;4959738;28;20039;-85
2022/08/09 05:33:14;;;;;;;11.57;7.40;;;;;;;23.39;100.00;100796.22;4959527;28;20062;-88
2022/08/09 05:35:40;;;;;;;14.18;8.10;;;;;;;23.58;98.04;100793.16;4976509;28;20039;-88
2022/08/09 05:38:05;;;;;;;13.82;7.63;;;;;;;23.57;98.13;100790.66;4959289;28;20035;-89
2022/08/09 05:40:31;;;;;;;17.65;7.43;;;;;;;23.75;96.61;100798.59;4975736;28;20081;-86
2022/08/09 05:42:57;;;;;;;18.85;7.50;;;;;;;23.64;97.10;100791.34;4975964;28;20031;-87
2022/08/09 05:45:23;;;;;;;11.27;7.57;;;;;;;24.03;95.00;100795.88;4976521;28;20035;-87
2022/08/09 05:47:48;;;;;;;12.43;7.97;;;;;;;24.31;92.64;100803.16;4976046;28;20035;-88
2022/08/09 05:50:15;;;;;;;13.35;7.93;;;;;;;24.63;89.93;100812.38;4976457;28;20342;-88
2022/08/09 05:52:43;;;;;;;12.68;7.50;;;;;;;24.95;87.20;100803.66;4975417;28;20070;-88
2022/08/09 05:55:10;;;;;;;17.25;8.40;;;;;;;24.89;85.97;100810.88;4960266;28;20030;-90
2022/08/09 05:57:36;;;;;;;12.05;7.63;;;;;;;25.33;82.81;100817.19;4976575;28;20035;-88
2022/08/09 06:00:06;;;;;;;20.85;8.15;;;;;;;25.67;81.43;100824.16;4972126;28;20116;-89
2022/08/09 06:02:36;;;;;;;11.43;8.30;;;;;;;26.04;78.07;100829.72;4976357;28;20039;-89
2022/08/09 06:05:02;;;;;;;22.83;8.43;;;;;;;25.93;78.88;100827.97;4975973;28;20058;-89
2022/08/09 06:07:28;;;;;;;14.05;8.10;;;;;;;26.36;76.93;100831.69;4978130;28;20090;-91
2022/08/09 06:09:54;;;;;;;17.17;8.30;;;;;;;26.00;77.48;100834.03;4959365;28;20042;-89
2022/08/09 06:12:21;;;;;;;13.65;8.75;;;;;;;25.93;78.16;100848.88;4978244;28;20069;-89
2022/08/09 06:14:46;;;;;;;14.40;7.80;;;;;;;26.05;77.69;100850.38;4980052;28;20039;-89
2022/08/09 06:17:12;;;;;;;15.45;8.23;;;;;;;26.59;75.57;100843.03;4962809;28;20035;-89
2022/08/09 06:19:38;;;;;;;15.55;7.00;;;;;;;27.08;72.91;100843.66;4962065;28;20548;-89
2022/08/09 06:22:05;;;;;;;17.77;8.23;;;;;;;26.90;73.52;100855.00;4980832;28;20030;-88
2022/08/09 06:24:30;;;;;;;14.82;7.50;;;;;;;26.91;74.72;100851.19;4979520;28;20049;-90
2022/08/09 06:26:56;;;;;;;17.70;7.68;;;;;;;27.14;72.77;100839.91;4979839;28;20494;-92
2022/08/09 06:29:21;;;;;;;15.82;7.72;;;;;;;27.36;70.25;100847.91;4979629;28;20462;-90
2022/08/09 06:31:47;;;;;;;12.48;6.32;;;;;;;27.86;69.81;100846.50;4962144;28;20035;-88
2022/08/09 06:34:12;;;;;;;17.75;7.13;;;;;;;28.03;68.44;100852.56;4979320;28;20031;-90
2022/08/09 06:36:38;;;;;;;14.77;6.80;;;;;;;27.84;69.87;100854.13;4979480;28;20035;-90
2022/08/09 06:39:04;;;;;;;15.15;7.20;;;;;;;27.94;69.95;100849.50;4962404;28;20038;-89
2022/08/09 06:41:29;;;;;;;16.33;7.20;;;;;;;26.83;77.69;100853.56;4981122;28;20050;-91
2022/08/09 06:43:58;;;;;;;15.77;7.53;;;;;;;26.33;81.80;100859.38;4979950;28;20038;-92
2022/08/09 06:46:24;;;;;;;14.10;7.30;;;;;;;26.53;81.03;100848.69;4979767;28;20121;-91
2022/08/09 06:48:52;;;;;;;21.60;7.70;;;;;;;26.78;79.67;100861.69;4979926;28;20071;-90
2022/08/09 06:51:17;;;;;;;22.05;7.55;;;;;;;27.63;74.62;100853.25;4946802;28;20045;-91
2022/08/09 06:53:43;;;;;;;18.02;7.40;;;;;;;27.23;76.54;100860.09;4982061;28;20039;-90
2022/08/09 06:56:08;;;;;;;15.85;7.10;;;;;;;27.19;77.05;100859.00;4949783;28;20070;-88
2022/08/09 06:58:34;;;;;;;14.77;7.88;;;;;;;26.44;80.06;100861.13;4984856;28;20031;-91
2022/08/09 07:01:00;;;;;;;14.43;7.85;;;;;;;27.45;76.06;100857.25;4966593;28;20070;-93
2022/08/09 07:03:26;;;;;;;15.23;7.35;;;;;;;27.24;77.48;100856.28;4981064;28;20073;-90
2022/08/09 07:05:51;;;;;;;17.40;7.75;;;;;;;27.31;75.76;100855.25;4982541;28;20387;-91
2022/08/09 07:08:21;;;;;;;20.88;7.85;;;;;;;27.19;77.08;100859.00;4965159;28;20520;-94
2022/08/09 07:10:52;;;;;;;19.17;7.20;;;;;;;27.49;76.33;100850.19;4981914;28;20101;-93
2022/08/09 07:13:21;;;;;;;12.50;7.28;;;;;;;27.64;76.63;100854.88;4981141;28;20038;-92
2022/08/09 07:15:55;;;;;;;16.33;7.32;;;;;;;27.94;73.80;100854.97;4983595;28;20037;-95
2022/08/09 07:18:20;;;;;;;19.60;7.50;;;;;;;27.65;75.20;100856.50;4949943;28;20400;-92
2022/08/09 07:20:46;;;;;;;14.35;7.50;;;;;;;27.98;72.97;100853.34;4981793;28;20039;-94
2022/08/09 07:23:12;;;;;;;9.48;6.88;;;;;;;28.45;70.95;100860.53;4982245;28;20105;-93
2022/08/09 07:25:40;;;;;;;12.10;6.60;;;;;;;28.69;68.25;100862.50;4982844;28;20085;-92
2022/08/09 07:28:06;;;;;;;14.07;7.47;;;;;;;28.78;69.07;100865.47;4982905;28;20026;-94
2022/08/09 07:30:32;;;;;;;16.25;6.88;;;;;;;29.61;65.23;100863.13;4982343;28;20102;-95
2022/08/09 07:32:57;;;;;;;11.38;6.07;;;;;;;30.45;61.57;100867.59;4966444;28;20102;-90
2022/08/09 07:35:29;;;;;;;14.90;6.38;;;;;;;29.82;63.10;100874.78;4982260;28;20026;-91
2022/08/09 07:37:54;;;;;;;12.35;6.43;;;;;;;29.89;62.54;100865.22;4979627;28;20038;-89
2022/08/09 07:40:24;;;;;;;14.25;7.00;;;;;;;29.68;63.39;100863.63;4980123;28;20041;-94
2022/08/09 07:42:57;;;;;;;15.05;6.65;;;;;;;29.95;61.82;100857.78;4979853;28;20056;-86
2022/08/09 07:45:24;;;;;;;14.80;6.82;;;;;;;29.48;64.23;100856.34;4977984;28;20038;-91
2022/08/09 07:47:51;;;;;;;12.60;7.20;;;;;;;29.14;65.71;100864.31;4980916;28;20039;-93
2022/08/09 07:50:25;;;;;;;9.98;6.05;;;;;;;29.77;63.57;100859.22;4993321;28;20030;-91
2022/08/09 07:52:52;;;;;;;11.57;6.78;;;;;;;30.05;61.68;100865.94;5008077;28;20034;-85
2022/08/09 07:55:18;;;;;;;17.02;6.32;;;;;;;30.14;61.31;100867.78;5013338;28;20014;-89
2022/08/09 07:57:49;;;;;;;13.07;6.43;;;;;;;29.63;64.10;100866.41;5016022;28;20038;-86
2022/08/09 08:00:18;;;;;;;12.63;7.10;;;;;;;29.22;65.16;100858.31;5012801;28;20031;-85
2022/08/09 08:02:47;;;;;;;15.80;7.13;;;;;;;29.02;66.32;100861.09;5000240;28;20041;-87
2022/08/09 08:05:13;;;;;;;11.57;6.93;;;;;;;29.05;66.51;100860.53;5006612;28;20113;-91
2022/08/09 08:07:51;;;;;;;15.88;7.40;;;;;;;28.65;68.72;100860.53;4993284;28;20058;-89
2022/08/09 08:10:17;;;;;;;18.20;6.47;;;;;;;28.81;67.98;100854.00;5000029;28;20046;-87
2022/08/09 08:12:44;;;;;;;11.98;6.13;;;;;;;29.04;66.74;100856.16;5003341;28;20042;-94
2022/08/09 08:15:15;;;;;;;13.98;6.55;;;;;;;29.35;64.61;100865.13;4978924;28;20049;-91
2022/08/09 08:17:41;;;;;;;15.35;7.35;;;;;;;29.98;62.08;100874.44;4989559;28;20046;-90
2022/08/09 08:20:14;;;;;;;15.95;7.30;;;;;;;29.74;62.22;100882.47;4981850;28;20471;-92
2022/08/09 08:22:39;;;;;;;15.10;7.70;;;;;;;29.67;62.53;100875.66;4994471;28;20035;-91
2022/08/09 08:25:05;;;;;;;18.00;6.75;;;;;;;29.52;63.55;100870.25;4993719;28;20045;-90
2022/08/09 08:27:34;;;;;;;10.73;6.40;;;;;;;29.66;64.02;100869.38;4992788;28;20034;-89
2022/08/09 08:30:04;;;;;;;11.33;7.30;;;;;;;29.46;64.20;100863.19;4998358;28;20483;-89
2022/08/09 08:32:33;;;;;;;14.25;7.07;;;;;;;30.19;61.00;100878.69;5028353;22;20053;-91
2022/08/09 08:35:08;;;;;;;10.98;8.02;;;;;;;30.33;60.07;100887.06;5039099;28;20155;-89
2022/08/09 08:37:37;;;;;;;10.88;6.53;;;;;;;30.36;59.43;100874.75;5040210;28;20033;-90
2022/08/09 08:40:04;;;;;;;16.55;7.15;;;;;;;30.46;59.92;100888.41;5038839;28;20034;-94
2022/08/09 08:42:31;;;;;;;16.30;6.82;;;;;;;30.08;61.25;100879.03;5026699;28;20057;-90
2022/08/09 08:44:59;;;;;;;11.43;6.63;;;;;;;30.44;59.05;100882.38;5018823;28;20034;-94
2022/08/09 08:47:26;;;;;;;13.52;6.65;;;;;;;30.54;59.04;100882.31;4984039;28;20036;-92
2022/08/09 08:49:58;;;;;;;14.15;6.88;;;;;;;30.46;60.18;100880.19;4998410;28;20064;-92
2022/08/09 08:52:26;;;;;;;10.73;6.82;;;;;;;29.75;62.23;100884.09;5006618;28;20033;-93
2022/08/09 08:54:56;;;;;;;22.35;7.20;;;;;;;29.01;64.83;100870.34;5017972;28;20037;-93
2022/08/09 08:57:29;;;;;;;20.13;7.75;;;;;;;28.58;65.93;100877.19;5026453;28;20068;-92
2022/08/09 08:59:54;;;;;;;12.30;7.97;;;;;;;28.56;66.98;100878.53;5017556;28;20068;-93
2022/08/09 09:02:28;;;;;;;14.85;6.93;;;;;;;29.43;64.73;100872.72;5011234;28;20038;-92
2022/08/09 09:04:59;;;;;;;19.63;7.82;;;;;;;30.05;61.13;100885.91;5019578;28;20097;-90
2022/08/09 09:07:27;;;;;;;15.57;8.10;;;;;;;30.20;60.46;100869.38;5002773;28;20184;-93
2022/08/09 09:09:54;;;;;;;19.35;7.53;;;;;;;31.00;58.10;100871.78;5020874;28;20156;-93
2022/08/09 09:12:28;;;;;;;13.88;7.38;;;;;;;30.27;60.39;100869.88;5003948;28;20030;-93
2022/08/09 09:14:56;;;;;;;14.85;6.57;;;;;;;30.32;59.89;100879.16;5037419;28;20038;-93
2022/08/09 09:17:25;;;;;;;15.35;5.47;;;;;;;29.98;62.12;100879.09;5004071;28;20039;-93
2022/08/09 09:19:53;;;;;;;10.18;6.10;;;;;;;29.72;63.24;100872.91;5000887;28;20403;-93
2022/08/09 09:22:21;;;;;;;15.32;5.93;;;;;;;29.39;64.36;100870.84;5016553;28;20079;-89
2022/08/09 09:24:53;;;;;;;11.20;5.55;;;;;;;29.72;63.40;100870.19;5039426;28;20033;-93
2022/08/09 09:27:27;;;;;;;10.73;6.47;;;;;;;29.64;63.15;100876.22;5026054;28;20030;-92
2022/08/09 09:29:55;;;;;;;13.48;6.28;;;;;;;29.53;63.37;100869.19;5024752;28;20045;-94
2022/08/09 09:32:51;;;;;;;13.77;5.63;;;;;;;29.42;63.53;100864.84;5027289;28;20049;-94
2022/08/09 09:35:27;;;;;;;11.55;5.93;;;;;;;29.57;63.03;100872.97;5022280;28;20041;-91
2022/08/09 09:38:05;;;;;;;15.20;5.38;;;;;;;30.04;61.32;100867.84;5023805;28;20029;-93
2022/08/09 09:40:43;;;;;;;12.45;5.53;;;;;;;30.08;61.62;100860.72;5021171;28;20047;-91
2022/08/09 09:43:17;;;;;;;8.98;5.72;;;;;;;30.77;58.93;100860.50;5017340;28;20059;-91
2022/08/09 09:45:54;;;;;;;12.32;5.20;;;;;;;30.76;59.28;100860.75;5005215;28;20117;-93
2022/08/09 09:48:21;;;;;;;11.45;4.95;;;;;;;31.05;58.36;100850.69;5022327;28;20075;-93
2022/08/09 09:50:50;;;;;;;10.07;4.35;;;;;;;31.08;58.17;100854.75;5019044;28;20438;-88
2022/08/09 09:53:24;;;;;;;12.15;4.60;;;;;;;31.93;55.03;100849.31;5024790;28;20033;-91
2022/08/09 09:56:04;;;;;;;9.70;4.97;;;;;;;31.34;54.98;100852.53;5039645;28;20033;-92
2022/08/09 09:58:49;;;;;;;16.20;4.68;;;;;;;30.93;57.04;100857.59;5030600;28;20057;-94
2022/08/09 10:01:21;;;;;;;17.58;4.57;;;;;;;30.86;58.30;100846.97;5020497;28;20128;-91
2022/08/09 10:03:48;;;;;;;;;;;;;;;30.67;58.30;100857.00;5025283;28;20034;-93
2022/08/09 10:06:17;;;;;;;7.35;4.28;;;;;;;31.25;55.38;100850.44;5012111;28;19924;-93
2022/08/09 10:08:49;;;;;;;18.83;4.65;;;;;;;31.00;55.85;100850.72;5025252;28;20029;-91
2022/08/09 10:11:19;;;;;;;11.77;4.80;;;;;;;31.26;55.49;100851.25;5023754;28;20060;-91
2022/08/09 10:13:46;;;;;;;10.55;4.88;;;;;;;31.24;55.56;100848.81;5005840;28;20041;-94
2022/08/09 10:16:12;;;;;;;14.40;4.60;;;;;;;31.57;53.38;100847.06;5023774;28;20482;-91
2022/08/09 10:18:38;;;;;;;11.95;4.40;;;;;;;31.85;52.53;100842.59;5022867;28;20466;-92
2022/08/09 10:21:11;;;;;;;13.13;4.63;;;;;;;31.91;51.79;100843.34;5023772;28;20395;-91
2022/08/09 10:23:42;;;;;;;9.27;4.40;;;;;;;31.60;52.53;100843.75;5006258;28;20115;-93
2022/08/09 10:26:09;;;;;;;6.83;4.40;;;;;;;31.94;51.87;100832.59;5039584;28;20064;-93
2022/08/09 10:28:36;;;;;;;8.10;4.38;;;;;;;32.28;51.24;100839.78;5044070;28;20282;-92
2022/08/09 10:31:01;;;;;;;13.20;4.65;;;;;;;32.38;51.19;100828.66;5007829;28;20045;-92
2022/08/09 10:33:28;;;;;;;12.00;4.53;;;;;;;32.28;51.18;100830.44;5007600;28;20041;-92
2022/08/09 10:36:00;;;;;;;9.95;3.72;;;;;;;32.81;47.29;100834.81;5006910;28;20458;-93
2022/08/09 10:38:25;;;;;;;6.15;4.20;;;;;;;32.00;47.65;100838.81;5025609;28;20488;-92
2022/08/09 10:40:51;;;;;;;10.18;4.47;;;;;;;32.11;47.95;100835.66;5020060;28;20073;-92
2022/08/09 10:43:19;;;;;;;10.75;4.65;;;;;;;32.32;48.11;100843.59;5037125;28;20045;-92
2022/08/09 10:45:45;;;;;;;8.07;3.80;;;;;;;32.50;48.31;100832.56;5023014;28;20099;-91
2022/08/09 10:48:21;;;;;;;7.25;4.60;;;;;;;32.58;47.74;100833.84;5037246;28;20033;-92
2022/08/09 10:51:16;;;;;;;8.68;4.32;;;;;;;32.35;47.77;100840.25;5040140;28;20068;-91
2022/08/09 10:54:11;;;;;;;10.60;4.82;;;;;;;32.00;49.12;100825.09;5035290;28;20041;-92
2022/08/09 10:57:05;;;;;;;8.68;4.40;;;;;;;31.94;50.31;100827.09;5044243;28;20064;-92
2022/08/09 10:59:31;;;;;;;17.02;4.97;;;;;;;32.05;49.37;100830.56;5041887;28;20057;-93
2022/08/09 11:01:58;;;;;;;14.23;4.50;;;;;;;31.95;49.96;100814.22;5026744;28;20044;-91
2022/08/09 11:04:33;;;;;;;7.43;4.43;;;;;;;32.51;47.31;100816.91;5033558;28;20040;-93
2022/08/09 11:07:04;;;;;;;9.63;4.72;;;;;;;32.42;47.87;100803.03;5070163;23;20114;-91
2022/08/09 11:09:42;;;;;;;9.63;4.57;;;;;;;33.05;47.01;100800.53;5027636;28;20484;-92
2022/08/09 11:12:26;;;;;;;7.90;4.40;;;;;;;33.07;47.15;100787.34;5027723;28;20045;-92
2022/08/09 11:15:03;;;;;;;9.57;4.53;;;;;;;32.80;47.25;100801.03;5027313;28;20041;-91
2022/08/09 11:17:28;;;;;;;6.70;4.28;;;;;;;32.67;44.48;100791.66;5013472;28;20048;-94
2022/08/09 11:20:08;;;;;;;7.63;4.25;;;;;;;32.61;42.81;100803.03;5068530;22;20122;-84
2022/08/09 11:22:40;;;;;;;9.85;4.25;;;;;;;32.36;44.57;100806.19;5020134;28;20037;-85
2022/08/09 11:25:08;;;;;;;11.48;4.40;;;;;;;32.10;45.65;100800.28;5038368;28;20441;-81
2022/08/09 11:27:39;;;;;;;8.20;4.20;;;;;;;32.53;44.64;100792.72;5020543;28;20080;-84